sensor_id;sensor_type;location;lat;lon;timestamp;temperature;humidity
26641;DHT22;14269;47.358;0.724;2023-04-02T00:01:27;12.0;73.0
26641;DHT22;14269;47.358;0.724;2023-04-02T00:04:16;12.0;72.0
26641;DHT22;14269;47.358;0.724;2023-04-02T00:07:29;12.0;72.0
26641;DHT22;14269;47.358;0.724;2023-04-02T00:10:25;12.0;71.0
26641;DHT22;14269;47.358;0.724;2023-04-02T00:13:03;12.0;72.0
26641;DHT22;14269;47.358;0.724;2023-04-02T00:15:45;12.0;72.0
26641;DHT22;14269;47.358;0.724;2023-04-02T00:18:25;12.0;72.0
26641;DHT22;14269;47.358;0.724;2023-04-02T00:21:11;12.0;72.0
26641;DHT22;14269;47.358;0.724;2023-04-02T00:23:47;12.0;72.0
26641;DHT22;14269;47.358;0.724;2023-04-02T00:26:21;12.0;72.0
26641;DHT22;14269;47.358;0.724;2023-04-02T00:29:04;12.0;72.0
26641;DHT22;14269;47.358;0.724;2023-04-02T00:31:44;12.0;72.0
26641;DHT22;14269;47.358;0.724;2023-04-02T00:34:27;12.0;72.0
26641;DHT22;14269;47.358;0.724;2023-04-02T00:37:06;12.0;72.0
26641;DHT22;14269;47.358;0.724;2023-04-02T00:39:38;12.0;72.0
26641;DHT22;14269;47.358;0.724;2023-04-02T00:42:19;12.0;72.0
26641;DHT22;14269;47.358;0.724;2023-04-02T00:45:02;12.0;72.0
26641;DHT22;14269;47.358;0.724;2023-04-02T00:47:43;12.0;73.0
26641;DHT22;14269;47.358;0.724;2023-04-02T00:50:22;12.0;72.0
26641;DHT22;14269;47.358;0.724;2023-04-02T00:52:57;12.0;72.0
26641;DHT22;14269;47.358;0.724;2023-04-02T00:55:39;11.0;73.0
26641;DHT22;14269;47.358;0.724;2023-04-02T00:58:25;11.0;73.0
26641;DHT22;14269;47.358;0.724;2023-04-02T01:01:03;11.0;73.0
26641;DHT22;14269;47.358;0.724;2023-04-02T01:03:57;11.0;73.0
26641;DHT22;14269;47.358;0.724;2023-04-02T01:06:37;11.0;73.0
26641;DHT22;14269;47.358;0.724;2023-04-02T01:09:26;11.0;73.0
26641;DHT22;14269;47.358;0.724;2023-04-02T01:12:28;12.0;73.0
26641;DHT22;14269;47.358;0.724;2023-04-02T01:15:07;11.0;73.0
26641;DHT22;14269;47.358;0.724;2023-04-02T01:17:52;11.0;73.0
26641;DHT22;14269;47.358;0.724;2023-04-02T01:20:55;11.0;73.0
26641;DHT22;14269;47.358;0.724;2023-04-02T01:23:47;11.0;73.0
26641;DHT22;14269;47.358;0.724;2023-04-02T01:26:40;11.0;73.0
26641;DHT22;14269;47.358;0.724;2023-04-02T01:29:22;11.0;73.0
26641;DHT22;14269;47.358;0.724;2023-04-02T01:32:04;11.0;73.0
26641;DHT22;14269;47.358;0.724;2023-04-02T01:34:45;11.0;73.0
26641;DHT22;14269;47.358;0.724;2023-04-02T01:37:33;11.0;74.0
26641;DHT22;14269;47.358;0.724;2023-04-02T01:40:18;11.0;74.0
26641;DHT22;14269;47.358;0.724;2023-04-02T01:43:06;11.0;74.0
26641;DHT22;14269;47.358;0.724;2023-04-02T01:45:41;11.0;74.0
26641;DHT22;14269;47.358;0.724;2023-04-02T01:48:14;11.0;74.0
26641;DHT22;14269;47.358;0.724;2023-04-02T01:50:56;11.0;74.0
26641;DHT22;14269;47.358;0.724;2023-04-02T01:53:36;12.0;74.0
26641;DHT22;14269;47.358;0.724;2023-04-02T01:56:07;12.0;73.0
26641;DHT22;14269;47.358;0.724;2023-04-02T01:58:39;12.0;74.0
26641;DHT22;14269;47.358;0.724;2023-04-02T02:01:13;12.0;73.0
26641;DHT22;14269;47.358;0.724;2023-04-02T02:03:53;11.0;74.0
26641;DHT22;14269;47.358;0.724;2023-04-02T02:06:24;11.0;74.0
26641;DHT22;14269;47.358;0.724;2023-04-02T02:08:58;11.0;74.0
26641;DHT22;14269;47.358;0.724;2023-04-02T02:11:37;11.0;74.0
26641;DHT22;14269;47.358;0.724;2023-04-02T02:14:14;11.0;74.0
26641;DHT22;14269;47.358;0.724;2023-04-02T02:16:52;11.0;74.0
26641;DHT22;14269;47.358;0.724;2023-04-02T02:19:35;11.0;75.0
26641;DHT22;14269;47.358;0.724;2023-04-02T02:22:20;11.0;75.0
26641;DHT22;14269;47.358;0.724;2023-04-02T02:24:58;11.0;75.0
26641;DHT22;14269;47.358;0.724;2023-04-02T02:27:58;11.0;75.0
26641;DHT22;14269;47.358;0.724;2023-04-02T02:30:43;11.0;75.0
26641;DHT22;14269;47.358;0.724;2023-04-02T02:33:24;11.0;75.0
26641;DHT22;14269;47.358;0.724;2023-04-02T02:36:06;11.0;75.0
26641;DHT22;14269;47.358;0.724;2023-04-02T02:38:49;11.0;75.0
26641;DHT22;14269;47.358;0.724;2023-04-02T02:41:32;11.0;76.0
26641;DHT22;14269;47.358;0.724;2023-04-02T02:44:14;11.0;76.0
26641;DHT22;14269;47.358;0.724;2023-04-02T02:46:53;11.0;76.0
26641;DHT22;14269;47.358;0.724;2023-04-02T02:49:35;11.0;76.0
26641;DHT22;14269;47.358;0.724;2023-04-02T02:52:16;11.0;76.0
26641;DHT22;14269;47.358;0.724;2023-04-02T02:54:58;11.0;76.0
26641;DHT22;14269;47.358;0.724;2023-04-02T02:57:41;11.0;77.0
26641;DHT22;14269;47.358;0.724;2023-04-02T03:00:20;11.0;76.0
26641;DHT22;14269;47.358;0.724;2023-04-02T03:03:06;11.0;76.0
26641;DHT22;14269;47.358;0.724;2023-04-02T03:05:43;11.0;76.0
26641;DHT22;14269;47.358;0.724;2023-04-02T03:08:28;11.0;76.0
26641;DHT22;14269;47.358;0.724;2023-04-02T03:11:11;11.0;76.0
26641;DHT22;14269;47.358;0.724;2023-04-02T03:13:49;11.0;76.0
26641;DHT22;14269;47.358;0.724;2023-04-02T03:16:34;11.0;76.0
26641;DHT22;14269;47.358;0.724;2023-04-02T03:19:23;12.0;76.0
26641;DHT22;14269;47.358;0.724;2023-04-02T03:22:07;12.0;75.0
26641;DHT22;14269;47.358;0.724;2023-04-02T03:24:54;12.0;75.0
26641;DHT22;14269;47.358;0.724;2023-04-02T03:27:30;11.0;76.0
26641;DHT22;14269;47.358;0.724;2023-04-02T03:30:30;11.0;76.0
26641;DHT22;14269;47.358;0.724;2023-04-02T03:33:13;11.0;76.0
26641;DHT22;14269;47.358;0.724;2023-04-02T03:35:57;11.0;76.0
26641;DHT22;14269;47.358;0.724;2023-04-02T03:38:38;11.0;76.0
26641;DHT22;14269;47.358;0.724;2023-04-02T03:41:18;11.0;76.0
26641;DHT22;14269;47.358;0.724;2023-04-02T03:44:00;11.0;76.0
26641;DHT22;14269;47.358;0.724;2023-04-02T03:46:43;11.0;76.0
26641;DHT22;14269;47.358;0.724;2023-04-02T03:49:27;11.0;76.0
26641;DHT22;14269;47.358;0.724;2023-04-02T03:52:08;11.0;76.0
26641;DHT22;14269;47.358;0.724;2023-04-02T03:54:45;11.0;75.0
26641;DHT22;14269;47.358;0.724;2023-04-02T03:57:25;11.0;75.0
26641;DHT22;14269;47.358;0.724;2023-04-02T04:00:04;11.0;75.0
26641;DHT22;14269;47.358;0.724;2023-04-02T04:02:42;11.0;76.0
26641;DHT22;14269;47.358;0.724;2023-04-02T04:05:25;11.0;76.0
26641;DHT22;14269;47.358;0.724;2023-04-02T04:08:06;11.0;75.0
26641;DHT22;14269;47.358;0.724;2023-04-02T04:10:50;11.0;75.0
26641;DHT22;14269;47.358;0.724;2023-04-02T04:13:30;11.0;76.0
26641;DHT22;14269;47.358;0.724;2023-04-02T04:16:10;11.0;75.0
26641;DHT22;14269;47.358;0.724;2023-04-02T04:18:58;11.0;75.0
26641;DHT22;14269;47.358;0.724;2023-04-02T04:21:44;11.0;75.0
26641;DHT22;14269;47.358;0.724;2023-04-02T04:24:24;11.0;76.0
26641;DHT22;14269;47.358;0.724;2023-04-02T04:27:11;11.0;75.0
26641;DHT22;14269;47.358;0.724;2023-04-02T04:29:54;11.0;75.0
26641;DHT22;14269;47.358;0.724;2023-04-02T04:32:33;11.0;75.0
26641;DHT22;14269;47.358;0.724;2023-04-02T04:35:19;11.0;75.0
26641;DHT22;14269;47.358;0.724;2023-04-02T04:37:59;11.0;76.0
26641;DHT22;14269;47.358;0.724;2023-04-02T04:40:36;11.0;76.0
26641;DHT22;14269;47.358;0.724;2023-04-02T04:43:19;11.0;76.0
26641;DHT22;14269;47.358;0.724;2023-04-02T04:46:01;11.0;76.0
26641;DHT22;14269;47.358;0.724;2023-04-02T04:48:48;11.0;76.0
26641;DHT22;14269;47.358;0.724;2023-04-02T04:51:26;11.0;75.0
26641;DHT22;14269;47.358;0.724;2023-04-02T04:54:03;11.0;75.0
26641;DHT22;14269;47.358;0.724;2023-04-02T04:56:36;11.0;75.0
26641;DHT22;14269;47.358;0.724;2023-04-02T04:59:20;11.0;75.0
26641;DHT22;14269;47.358;0.724;2023-04-02T05:02:04;11.0;75.0
26641;DHT22;14269;47.358;0.724;2023-04-02T05:04:42;11.0;75.0
26641;DHT22;14269;47.358;0.724;2023-04-02T05:07:25;11.0;74.0
26641;DHT22;14269;47.358;0.724;2023-04-02T05:10:07;11.0;74.0
26641;DHT22;14269;47.358;0.724;2023-04-02T05:12:50;11.0;74.0
26641;DHT22;14269;47.358;0.724;2023-04-02T05:15:30;11.0;74.0
26641;DHT22;14269;47.358;0.724;2023-04-02T05:18:17;11.0;74.0
26641;DHT22;14269;47.358;0.724;2023-04-02T05:20:56;10.0;74.0
26641;DHT22;14269;47.358;0.724;2023-04-02T05:23:36;10.0;74.0
26641;DHT22;14269;47.358;0.724;2023-04-02T05:26:17;10.0;74.0
26641;DHT22;14269;47.358;0.724;2023-04-02T05:28:59;10.0;74.0
26641;DHT22;14269;47.358;0.724;2023-04-02T05:31:42;10.0;74.0
26641;DHT22;14269;47.358;0.724;2023-04-02T05:34:21;10.0;74.0
26641;DHT22;14269;47.358;0.724;2023-04-02T05:37:01;10.0;74.0
26641;DHT22;14269;47.358;0.724;2023-04-02T05:39:33;10.0;74.0
26641;DHT22;14269;47.358;0.724;2023-04-02T05:42:07;10.0;74.0
26641;DHT22;14269;47.358;0.724;2023-04-02T05:44:55;10.0;74.0
26641;DHT22;14269;47.358;0.724;2023-04-02T05:47:30;10.0;74.0
26641;DHT22;14269;47.358;0.724;2023-04-02T05:50:18;10.0;74.0
26641;DHT22;14269;47.358;0.724;2023-04-02T05:52:57;10.0;74.0
26641;DHT22;14269;47.358;0.724;2023-04-02T05:55:38;10.0;73.0
26641;DHT22;14269;47.358;0.724;2023-04-02T05:58:20;10.0;73.0
26641;DHT22;14269;47.358;0.724;2023-04-02T06:01:43;10.0;73.0
26641;DHT22;14269;47.358;0.724;2023-04-02T06:04:22;10.0;73.0
26641;DHT22;14269;47.358;0.724;2023-04-02T06:07:04;10.0;72.0
26641;DHT22;14269;47.358;0.724;2023-04-02T06:09:45;10.0;73.0
26641;DHT22;14269;47.358;0.724;2023-04-02T06:12:28;10.0;73.0
26641;DHT22;14269;47.358;0.724;2023-04-02T06:15:11;10.0;72.0
26641;DHT22;14269;47.358;0.724;2023-04-02T06:17:51;10.0;73.0
26641;DHT22;14269;47.358;0.724;2023-04-02T06:20:30;10.0;73.0
26641;DHT22;14269;47.358;0.724;2023-04-02T06:23:05;11.0;72.0
26641;DHT22;14269;47.358;0.724;2023-04-02T06:25:46;11.0;72.0
26641;DHT22;14269;47.358;0.724;2023-04-02T06:28:28;11.0;72.0
26641;DHT22;14269;47.358;0.724;2023-04-02T06:31:09;11.0;72.0
26641;DHT22;14269;47.358;0.724;2023-04-02T06:33:51;11.0;72.0
26641;DHT22;14269;47.358;0.724;2023-04-02T06:36:32;11.0;71.0
26641;DHT22;14269;47.358;0.724;2023-04-02T06:39:17;11.0;72.0
26641;DHT22;14269;47.358;0.724;2023-04-02T06:41:58;11.0;71.0
26641;DHT22;14269;47.358;0.724;2023-04-02T06:44:36;11.0;71.0
26641;DHT22;14269;47.358;0.724;2023-04-02T06:47:23;11.0;71.0
26641;DHT22;14269;47.358;0.724;2023-04-02T06:50:03;11.0;71.0
26641;DHT22;14269;47.358;0.724;2023-04-02T06:52:45;11.0;70.0
26641;DHT22;14269;47.358;0.724;2023-04-02T06:55:29;11.0;71.0
26641;DHT22;14269;47.358;0.724;2023-04-02T06:58:04;11.0;70.0
26641;DHT22;14269;47.358;0.724;2023-04-02T07:00:38;11.0;70.0
26641;DHT22;14269;47.358;0.724;2023-04-02T07:03:22;11.0;70.0
26641;DHT22;14269;47.358;0.724;2023-04-02T07:06:01;11.0;71.0
26641;DHT22;14269;47.358;0.724;2023-04-02T07:08:41;11.0;70.0
26641;DHT22;14269;47.358;0.724;2023-04-02T07:11:14;11.0;70.0
26641;DHT22;14269;47.358;0.724;2023-04-02T07:13:54;11.0;70.0
26641;DHT22;14269;47.358;0.724;2023-04-02T07:16:28;11.0;70.0
26641;DHT22;14269;47.358;0.724;2023-04-02T07:19:15;11.0;69.0
26641;DHT22;14269;47.358;0.724;2023-04-02T07:21:50;11.0;70.0
26641;DHT22;14269;47.358;0.724;2023-04-02T07:24:21;11.0;69.0
26641;DHT22;14269;47.358;0.724;2023-04-02T07:26:53;11.0;69.0
26641;DHT22;14269;47.358;0.724;2023-04-02T07:29:25;11.0;70.0
26641;DHT22;14269;47.358;0.724;2023-04-02T07:31:56;11.0;70.0
26641;DHT22;14269;47.358;0.724;2023-04-02T07:34:28;11.0;70.0
26641;DHT22;14269;47.358;0.724;2023-04-02T07:37:01;11.0;70.0
26641;DHT22;14269;47.358;0.724;2023-04-02T07:39:41;11.0;70.0
26641;DHT22;14269;47.358;0.724;2023-04-02T07:42:13;12.0;69.0
26641;DHT22;14269;47.358;0.724;2023-04-02T07:44:45;12.0;69.0
26641;DHT22;14269;47.358;0.724;2023-04-02T07:47:16;12.0;69.0
26641;DHT22;14269;47.358;0.724;2023-04-02T07:49:48;12.0;69.0
26641;DHT22;14269;47.358;0.724;2023-04-02T07:52:20;12.0;69.0
26641;DHT22;14269;47.358;0.724;2023-04-02T07:54:51;12.0;69.0
26641;DHT22;14269;47.358;0.724;2023-04-02T07:57:23;11.0;69.0
26641;DHT22;14269;47.358;0.724;2023-04-02T07:59:56;11.0;69.0
26641;DHT22;14269;47.358;0.724;2023-04-02T08:02:36;11.0;69.0
26641;DHT22;14269;47.358;0.724;2023-04-02T08:05:09;11.0;69.0
26641;DHT22;14269;47.358;0.724;2023-04-02T08:07:52;11.0;68.0
26641;DHT22;14269;47.358;0.724;2023-04-02T08:10:31;11.0;69.0
26641;DHT22;14269;47.358;0.724;2023-04-02T08:13:03;11.0;70.0
26641;DHT22;14269;47.358;0.724;2023-04-02T08:15:35;11.0;70.0
26641;DHT22;14269;47.358;0.724;2023-04-02T08:18:06;11.0;70.0
26641;DHT22;14269;47.358;0.724;2023-04-02T08:20:38;11.0;70.0
26641;DHT22;14269;47.358;0.724;2023-04-02T08:23:14;11.0;69.0
26641;DHT22;14269;47.358;0.724;2023-04-02T08:25:52;11.0;69.0
26641;DHT22;14269;47.358;0.724;2023-04-02T08:28:33;11.0;69.0
26641;DHT22;14269;47.358;0.724;2023-04-02T08:31:07;11.0;69.0
26641;DHT22;14269;47.358;0.724;2023-04-02T08:33:46;11.0;69.0
26641;DHT22;14269;47.358;0.724;2023-04-02T08:36:19;11.0;69.0
26641;DHT22;14269;47.358;0.724;2023-04-02T08:39:00;11.0;69.0
26641;DHT22;14269;47.358;0.724;2023-04-02T08:41:47;11.0;69.0
26641;DHT22;14269;47.358;0.724;2023-04-02T08:45:35;12.0;68.0
26641;DHT22;14269;47.358;0.724;2023-04-02T08:48:14;12.0;67.0
26641;DHT22;14269;47.358;0.724;2023-04-02T08:50:58;12.0;66.0
26641;DHT22;14269;47.358;0.724;2023-04-02T08:53:38;12.0;68.0
26641;DHT22;14269;47.358;0.724;2023-04-02T08:56:22;12.0;67.0
26641;DHT22;14269;47.358;0.724;2023-04-02T08:59:02;12.0;67.0
26641;DHT22;14269;47.358;0.724;2023-04-02T09:01:48;12.0;68.0
26641;DHT22;14269;47.358;0.724;2023-04-02T09:04:25;12.0;68.0
26641;DHT22;14269;47.358;0.724;2023-04-02T09:07:11;12.0;67.0
26641;DHT22;14269;47.358;0.724;2023-04-02T09:09:48;12.0;67.0
26641;DHT22;14269;47.358;0.724;2023-04-02T09:12:30;12.0;67.0
26641;DHT22;14269;47.358;0.724;2023-04-02T09:15:21;12.0;67.0
26641;DHT22;14269;47.358;0.724;2023-04-02T09:18:12;12.0;66.0
26641;DHT22;14269;47.358;0.724;2023-04-02T09:20:47;12.0;66.0
26641;DHT22;14269;47.358;0.724;2023-04-02T09:23:27;12.0;66.0
26641;DHT22;14269;47.358;0.724;2023-04-02T09:25:58;12.0;66.0
26641;DHT22;14269;47.358;0.724;2023-04-02T09:28:29;12.0;66.0
26641;DHT22;14269;47.358;0.724;2023-04-02T09:31:10;12.0;66.0
26641;DHT22;14269;47.358;0.724;2023-04-02T09:33:53;12.0;67.0
26641;DHT22;14269;47.358;0.724;2023-04-02T09:36:32;11.0;67.0
26641;DHT22;14269;47.358;0.724;2023-04-02T09:39:16;11.0;68.0
26641;DHT22;14269;47.358;0.724;2023-04-02T09:41:50;11.0;67.0
26641;DHT22;14269;47.358;0.724;2023-04-02T09:44:30;12.0;67.0
26641;DHT22;14269;47.358;0.724;2023-04-02T09:47:04;12.0;67.0
26641;DHT22;14269;47.358;0.724;2023-04-02T09:49:43;12.0;67.0
26641;DHT22;14269;47.358;0.724;2023-04-02T09:52:24;12.0;66.0
26641;DHT22;14269;47.358;0.724;2023-04-02T09:55:17;12.0;66.0
26641;DHT22;14269;47.358;0.724;2023-04-02T09:57:50;12.0;66.0
26641;DHT22;14269;47.358;0.724;2023-04-02T10:00:30;12.0;66.0
26641;DHT22;14269;47.358;0.724;2023-04-02T10:03:04;12.0;66.0
26641;DHT22;14269;47.358;0.724;2023-04-02T10:05:45;11.0;67.0
26641;DHT22;14269;47.358;0.724;2023-04-02T10:08:27;12.0;66.0
26641;DHT22;14269;47.358;0.724;2023-04-02T10:11:11;12.0;66.0
26641;DHT22;14269;47.358;0.724;2023-04-02T10:13:51;12.0;67.0
26641;DHT22;14269;47.358;0.724;2023-04-02T10:16:33;12.0;66.0
26641;DHT22;14269;47.358;0.724;2023-04-02T10:19:17;12.0;66.0
26641;DHT22;14269;47.358;0.724;2023-04-02T10:21:55;12.0;66.0
26641;DHT22;14269;47.358;0.724;2023-04-02T10:24:36;12.0;65.0
26641;DHT22;14269;47.358;0.724;2023-04-02T10:27:18;12.0;66.0
26641;DHT22;14269;47.358;0.724;2023-04-02T10:30:08;12.0;64.0
26641;DHT22;14269;47.358;0.724;2023-04-02T10:32:45;12.0;65.0
26641;DHT22;14269;47.358;0.724;2023-04-02T10:35:35;12.0;65.0
26641;DHT22;14269;47.358;0.724;2023-04-02T10:38:23;12.0;65.0
26641;DHT22;14269;47.358;0.724;2023-04-02T10:40:59;11.0;66.0
26641;DHT22;14269;47.358;0.724;2023-04-02T10:43:52;12.0;66.0
26641;DHT22;14269;47.358;0.724;2023-04-02T10:46:35;12.0;66.0
26641;DHT22;14269;47.358;0.724;2023-04-02T10:49:19;12.0;65.0
26641;DHT22;14269;47.358;0.724;2023-04-02T10:51:57;12.0;66.0
26641;DHT22;14269;47.358;0.724;2023-04-02T10:54:40;12.0;65.0
26641;DHT22;14269;47.358;0.724;2023-04-02T10:57:24;12.0;65.0
26641;DHT22;14269;47.358;0.724;2023-04-02T11:00:13;12.0;65.0
26641;DHT22;14269;47.358;0.724;2023-04-02T11:02:54;12.0;65.0
26641;DHT22;14269;47.358;0.724;2023-04-02T11:05:39;12.0;65.0
26641;DHT22;14269;47.358;0.724;2023-04-02T11:08:17;12.0;64.0
26641;DHT22;14269;47.358;0.724;2023-04-02T11:11:00;12.0;64.0
26641;DHT22;14269;47.358;0.724;2023-04-02T11:13:47;12.0;63.0
26641;DHT22;14269;47.358;0.724;2023-04-02T11:16:20;12.0;64.0
26641;DHT22;14269;47.358;0.724;2023-04-02T11:19:19;12.0;64.0
26641;DHT22;14269;47.358;0.724;2023-04-02T11:21:54;13.0;64.0
26641;DHT22;14269;47.358;0.724;2023-04-02T11:24:38;12.0;63.0
26641;DHT22;14269;47.358;0.724;2023-04-02T11:27:21;12.0;63.0
26641;DHT22;14269;47.358;0.724;2023-04-02T11:30:05;13.0;63.0
26641;DHT22;14269;47.358;0.724;2023-04-02T11:32:42;12.0;64.0
26641;DHT22;14269;47.358;0.724;2023-04-02T11:35:35;12.0;63.0
26641;DHT22;14269;47.358;0.724;2023-04-02T11:39:44;12.0;64.0
26641;DHT22;14269;47.358;0.724;2023-04-02T11:42:29;12.0;64.0
26641;DHT22;14269;47.358;0.724;2023-04-02T11:46:37;12.0;64.0
26641;DHT22;14269;47.358;0.724;2023-04-02T11:51:48;12.0;65.0
26641;DHT22;14269;47.358;0.724;2023-04-02T11:54:28;12.0;65.0
26641;DHT22;14269;47.358;0.724;2023-04-02T11:57:17;12.0;66.0
26641;DHT22;14269;47.358;0.724;2023-04-02T12:00:17;12.0;65.0
26641;DHT22;14269;47.358;0.724;2023-04-02T12:03:17;12.0;65.0
26641;DHT22;14269;47.358;0.724;2023-04-02T12:06:06;13.0;64.0
26641;DHT22;14269;47.358;0.724;2023-04-02T12:08:53;13.0;64.0
26641;DHT22;14269;47.358;0.724;2023-04-02T12:11:38;13.0;65.0
26641;DHT22;14269;47.358;0.724;2023-04-02T12:14:51;13.0;64.0
26641;DHT22;14269;47.358;0.724;2023-04-02T12:17:33;12.0;65.0
26641;DHT22;14269;47.358;0.724;2023-04-02T12:20:20;12.0;64.0
26641;DHT22;14269;47.358;0.724;2023-04-02T12:22:55;12.0;64.0
26641;DHT22;14269;47.358;0.724;2023-04-02T12:25:39;12.0;64.0
26641;DHT22;14269;47.358;0.724;2023-04-02T12:28:17;12.0;64.0
26641;DHT22;14269;47.358;0.724;2023-04-02T12:31:04;13.0;63.0
26641;DHT22;14269;47.358;0.724;2023-04-02T12:33:41;13.0;64.0
26641;DHT22;14269;47.358;0.724;2023-04-02T12:36:22;13.0;63.0
26641;DHT22;14269;47.358;0.724;2023-04-02T12:38:56;13.0;64.0
26641;DHT22;14269;47.358;0.724;2023-04-02T12:41:36;13.0;64.0
26641;DHT22;14269;47.358;0.724;2023-04-02T12:44:15;13.0;64.0
26641;DHT22;14269;47.358;0.724;2023-04-02T12:46:50;13.0;64.0
26641;DHT22;14269;47.358;0.724;2023-04-02T12:49:34;13.0;64.0
26641;DHT22;14269;47.358;0.724;2023-04-02T12:52:14;13.0;65.0
26641;DHT22;14269;47.358;0.724;2023-04-02T12:54:56;13.0;64.0
26641;DHT22;14269;47.358;0.724;2023-04-02T12:57:38;13.0;64.0
26641;DHT22;14269;47.358;0.724;2023-04-02T13:00:35;13.0;64.0
26641;DHT22;14269;47.358;0.724;2023-04-02T13:03:17;13.0;65.0
26641;DHT22;14269;47.358;0.724;2023-04-02T13:05:53;13.0;65.0
26641;DHT22;14269;47.358;0.724;2023-04-02T13:08:38;12.0;65.0
26641;DHT22;14269;47.358;0.724;2023-04-02T13:11:15;12.0;65.0
26641;DHT22;14269;47.358;0.724;2023-04-02T13:13:47;12.0;65.0
26641;DHT22;14269;47.358;0.724;2023-04-02T13:16:33;13.0;65.0
26641;DHT22;14269;47.358;0.724;2023-04-02T13:19:20;13.0;63.0
26641;DHT22;14269;47.358;0.724;2023-04-02T13:22:02;13.0;62.0
26641;DHT22;14269;47.358;0.724;2023-04-02T13:24:33;13.0;63.0
26641;DHT22;14269;47.358;0.724;2023-04-02T13:27:08;12.0;64.0
26641;DHT22;14269;47.358;0.724;2023-04-02T13:29:47;13.0;64.0
26641;DHT22;14269;47.358;0.724;2023-04-02T13:32:18;13.0;64.0
26641;DHT22;14269;47.358;0.724;2023-04-02T13:35:00;13.0;64.0
26641;DHT22;14269;47.358;0.724;2023-04-02T13:37:32;13.0;65.0
26641;DHT22;14269;47.358;0.724;2023-04-02T13:40:04;13.0;64.0
26641;DHT22;14269;47.358;0.724;2023-04-02T13:42:47;13.0;64.0
26641;DHT22;14269;47.358;0.724;2023-04-02T13:45:30;12.0;65.0
26641;DHT22;14269;47.358;0.724;2023-04-02T13:48:12;12.0;65.0
26641;DHT22;14269;47.358;0.724;2023-04-02T13:50:51;13.0;64.0
26641;DHT22;14269;47.358;0.724;2023-04-02T13:53:27;13.0;65.0
26641;DHT22;14269;47.358;0.724;2023-04-02T13:56:04;13.0;65.0
26641;DHT22;14269;47.358;0.724;2023-04-02T13:58:35;13.0;63.0
26641;DHT22;14269;47.358;0.724;2023-04-02T14:01:08;13.0;63.0
26641;DHT22;14269;47.358;0.724;2023-04-02T14:03:39;13.0;64.0
26641;DHT22;14269;47.358;0.724;2023-04-02T14:06:17;13.0;64.0
26641;DHT22;14269;47.358;0.724;2023-04-02T14:08:58;12.0;64.0
26641;DHT22;14269;47.358;0.724;2023-04-02T14:11:43;13.0;64.0
26641;DHT22;14269;47.358;0.724;2023-04-02T14:14:27;13.0;64.0
26641;DHT22;14269;47.358;0.724;2023-04-02T14:17:13;13.0;63.0
26641;DHT22;14269;47.358;0.724;2023-04-02T14:20:02;13.0;64.0
26641;DHT22;14269;47.358;0.724;2023-04-02T14:22:52;13.0;64.0
26641;DHT22;14269;47.358;0.724;2023-04-02T14:25:35;13.0;63.0
26641;DHT22;14269;47.358;0.724;2023-04-02T14:28:23;13.0;64.0
26641;DHT22;14269;47.358;0.724;2023-04-02T14:31:14;13.0;63.0
26641;DHT22;14269;47.358;0.724;2023-04-02T14:33:56;13.0;64.0
26641;DHT22;14269;47.358;0.724;2023-04-02T14:36:38;13.0;62.0
26641;DHT22;14269;47.358;0.724;2023-04-02T14:39:18;13.0;62.0
26641;DHT22;14269;47.358;0.724;2023-04-02T14:41:57;14.0;62.0
26641;DHT22;14269;47.358;0.724;2023-04-02T14:44:38;14.0;62.0
26641;DHT22;14269;47.358;0.724;2023-04-02T14:47:21;14.0;61.0
26641;DHT22;14269;47.358;0.724;2023-04-02T14:50:05;13.0;62.0
26641;DHT22;14269;47.358;0.724;2023-04-02T14:52:44;13.0;63.0
26641;DHT22;14269;47.358;0.724;2023-04-02T14:55:30;13.0;63.0
26641;DHT22;14269;47.358;0.724;2023-04-02T14:58:12;13.0;62.0
26641;DHT22;14269;47.358;0.724;2023-04-02T15:00:53;13.0;63.0
26641;DHT22;14269;47.358;0.724;2023-04-02T15:03:31;13.0;63.0
26641;DHT22;14269;47.358;0.724;2023-04-02T15:06:11;13.0;63.0
26641;DHT22;14269;47.358;0.724;2023-04-02T15:08:57;13.0;62.0
26641;DHT22;14269;47.358;0.724;2023-04-02T15:11:36;13.0;62.0
26641;DHT22;14269;47.358;0.724;2023-04-02T15:14:18;13.0;62.0
26641;DHT22;14269;47.358;0.724;2023-04-02T15:16:57;14.0;62.0
26641;DHT22;14269;47.358;0.724;2023-04-02T15:19:28;13.0;61.0
26641;DHT22;14269;47.358;0.724;2023-04-02T15:22:17;13.0;62.0
26641;DHT22;14269;47.358;0.724;2023-04-02T15:25:01;13.0;63.0
26641;DHT22;14269;47.358;0.724;2023-04-02T15:27:53;13.0;63.0
26641;DHT22;14269;47.358;0.724;2023-04-02T15:30:37;13.0;63.0
26641;DHT22;14269;47.358;0.724;2023-04-02T15:33:40;13.0;62.0
26641;DHT22;14269;47.358;0.724;2023-04-02T15:36:32;13.0;62.0
26641;DHT22;14269;47.358;0.724;2023-04-02T15:39:37;13.0;63.0
26641;DHT22;14269;47.358;0.724;2023-04-02T15:42:18;13.0;63.0
26641;DHT22;14269;47.358;0.724;2023-04-02T15:45:11;13.0;64.0
26641;DHT22;14269;47.358;0.724;2023-04-02T15:48:00;13.0;63.0
26641;DHT22;14269;47.358;0.724;2023-04-02T15:50:45;13.0;64.0
26641;DHT22;14269;47.358;0.724;2023-04-02T15:53:38;13.0;64.0
26641;DHT22;14269;47.358;0.724;2023-04-02T15:56:17;13.0;64.0
26641;DHT22;14269;47.358;0.724;2023-04-02T15:59:15;12.0;65.0
26641;DHT22;14269;47.358;0.724;2023-04-02T16:01:58;12.0;64.0
26641;DHT22;14269;47.358;0.724;2023-04-02T16:04:44;12.0;65.0
26641;DHT22;14269;47.358;0.724;2023-04-02T16:07:28;12.0;65.0
26641;DHT22;14269;47.358;0.724;2023-04-02T16:10:16;12.0;65.0
26641;DHT22;14269;47.358;0.724;2023-04-02T16:12:55;12.0;65.0
26641;DHT22;14269;47.358;0.724;2023-04-02T16:15:38;13.0;64.0
26641;DHT22;14269;47.358;0.724;2023-04-02T16:18:23;12.0;65.0
26641;DHT22;14269;47.358;0.724;2023-04-02T16:21:00;12.0;64.0
26641;DHT22;14269;47.358;0.724;2023-04-02T16:23:40;12.0;64.0
26641;DHT22;14269;47.358;0.724;2023-04-02T16:26:22;12.0;65.0
26641;DHT22;14269;47.358;0.724;2023-04-02T16:29:14;12.0;64.0
26641;DHT22;14269;47.358;0.724;2023-04-02T16:31:57;13.0;64.0
26641;DHT22;14269;47.358;0.724;2023-04-02T16:34:46;13.0;64.0
26641;DHT22;14269;47.358;0.724;2023-04-02T16:37:38;12.0;64.0
26641;DHT22;14269;47.358;0.724;2023-04-02T16:40:18;12.0;65.0
26641;DHT22;14269;47.358;0.724;2023-04-02T16:43:13;13.0;65.0
26641;DHT22;14269;47.358;0.724;2023-04-02T16:46:00;12.0;65.0
26641;DHT22;14269;47.358;0.724;2023-04-02T16:48:42;12.0;65.0
26641;DHT22;14269;47.358;0.724;2023-04-02T16:51:22;12.0;65.0
26641;DHT22;14269;47.358;0.724;2023-04-02T16:54:04;12.0;65.0
26641;DHT22;14269;47.358;0.724;2023-04-02T16:56:52;12.0;64.0
26641;DHT22;14269;47.358;0.724;2023-04-02T16:59:42;12.0;65.0
26641;DHT22;14269;47.358;0.724;2023-04-02T17:02:26;12.0;65.0
26641;DHT22;14269;47.358;0.724;2023-04-02T17:05:20;12.0;64.0
26641;DHT22;14269;47.358;0.724;2023-04-02T17:08:10;12.0;64.0
26641;DHT22;14269;47.358;0.724;2023-04-02T17:10:55;12.0;64.0
26641;DHT22;14269;47.358;0.724;2023-04-02T17:13:37;12.0;64.0
26641;DHT22;14269;47.358;0.724;2023-04-02T17:16:19;12.0;64.0
26641;DHT22;14269;47.358;0.724;2023-04-02T17:18:57;12.0;64.0
26641;DHT22;14269;47.358;0.724;2023-04-02T17:21:42;12.0;64.0
26641;DHT22;14269;47.358;0.724;2023-04-02T17:24:23;12.0;64.0
26641;DHT22;14269;47.358;0.724;2023-04-02T17:27:05;12.0;64.0
26641;DHT22;14269;47.358;0.724;2023-04-02T17:29:46;11.0;65.0
26641;DHT22;14269;47.358;0.724;2023-04-02T17:32:27;11.0;64.0
26641;DHT22;14269;47.358;0.724;2023-04-02T17:35:16;11.0;64.0
26641;DHT22;14269;47.358;0.724;2023-04-02T17:37:53;11.0;64.0
26641;DHT22;14269;47.358;0.724;2023-04-02T17:40:33;11.0;64.0
26641;DHT22;14269;47.358;0.724;2023-04-02T17:43:16;11.0;64.0